Time;durP1;ratioP1;P1;durP2;ratioP2;P2;SDS_P1;SDS_P2;PMS_P1;PMS_P2;Temp;Humidity;BMP_temperature;BMP_pressure;BME280_temperature;BME280_humidity;BME280_pressure;Samples;Min_cycle;Max_cycle;Signal;HPM_P1;HPM_P2
2022/06/04 00:01:40;;;;;;;9.93;8.90;;;11.70;1.00;;;;;;4960774;28;20194;-47
2022/06/04 00:04:06;;;;;;;15.23;12.33;;;11.70;1.00;;;;;;4967114;28;20448;-47
2022/06/04 00:06:32;;;;;;;15.33;12.10;;;11.60;99.90;;;;;;4963645;28;20444;-47
2022/06/04 00:08:57;;;;;;;13.40;10.40;;;11.60;99.90;;;;;;4967284;28;20250;-47
2022/06/04 00:16:51;;;;;;;11.33;9.03;;;11.50;99.90;;;;;;4965639;28;20447;-47
2022/06/04 00:19:17;;;;;;;15.70;9.50;;;11.50;1.00;;;;;;4963474;28;20971;-47
2022/06/04 00:21:43;;;;;;;11.27;8.33;;;11.40;1.00;;;;;;4969947;28;20300;-48
2022/06/04 00:24:08;;;;;;;10.00;8.47;;;11.40;99.90;;;;;;4961379;28;20259;-49
2022/06/04 00:26:34;;;;;;;11.93;8.37;;;11.30;99.90;;;;;;4959444;28;20840;-49
2022/06/04 00:29:00;;;;;;;13.03;8.00;;;11.30;99.90;;;;;;4969675;28;20544;-49
2022/06/04 00:31:26;;;;;;;12.67;8.50;;;11.20;1.00;;;;;;4959474;28;20428;-49
2022/06/04 00:33:51;;;;;;;10.77;7.50;;;11.10;1.00;;;;;;4967907;28;20215;-49
2022/06/04 00:36:17;;;;;;;11.50;8.90;;;11.10;1.00;;;;;;4966830;28;20644;-49
2022/06/04 00:38:45;;;;;;;11.60;8.60;;;11.00;1.00;;;;;;4969880;28;20260;-49
2022/06/04 00:41:25;;;;;;;10.70;8.20;;;11.00;1.00;;;;;;4964261;28;20236;-49
2022/06/04 00:44:29;;;;;;;9.53;8.03;;;11.00;1.00;;;;;;4968538;28;20937;-48
2022/06/04 00:47:21;;;;;;;13.03;8.53;;;10.90;1.00;;;;;;4964927;28;20502;-49
2022/06/04 00:49:46;;;;;;;13.83;8.60;;;10.90;1.00;;;;;;4964137;28;20451;-49
2022/06/04 00:52:15;;;;;;;12.87;8.93;;;10.80;1.00;;;;;;4964644;28;21041;-49
2022/06/04 00:54:43;;;;;;;8.67;7.73;;;10.80;1.00;;;;;;4962986;28;20276;-49
2022/06/04 00:57:38;;;;;;;8.00;7.00;;;10.80;1.00;;;;;;4961963;28;21080;-49
2022/06/04 01:00:12;;;;;;;13.27;8.63;;;10.80;1.00;;;;;;4967145;28;20464;-50
2022/06/04 01:02:58;;;;;;;11.10;8.83;;;10.70;1.00;;;;;;4963156;28;20487;-49
2022/06/04 01:05:43;;;;;;;15.13;8.77;;;10.70;1.00;;;;;;4965133;28;20440;-49
2022/06/04 01:08:18;;;;;;;13.67;8.77;;;10.60;1.00;;;;;;4965764;28;20542;-49
2022/06/04 01:11:25;;;;;;;9.83;7.73;;;10.60;1.00;;;;;;4964653;28;20539;-49
2022/06/04 01:14:21;;;;;;;11.90;8.90;;;10.60;1.00;;;;;;4958464;28;20436;-49
2022/06/04 01:17:00;;;;;;;13.63;8.37;;;10.50;1.00;;;;;;4954930;28;20512;-50
2022/06/04 01:19:45;;;;;;;16.00;9.83;;;10.50;1.00;;;;;;4968656;28;20526;-50
2022/06/04 01:22:42;;;;;;;15.50;9.40;;;10.50;1.00;;;;;;4961813;28;20432;-50
2022/06/04 01:25:25;;;;;;;11.77;8.67;;;10.40;1.00;;;;;;4964789;28;20455;-48
2022/06/04 01:28:04;;;;;;;13.37;8.87;;;10.40;1.00;;;;;;4968647;28;20476;-48
2022/06/04 01:30:41;;;;;;;20.63;9.50;;;10.40;1.00;;;;;;4964002;28;20454;-46
2022/06/04 01:33:25;;;;;;;18.73;10.43;;;10.40;1.00;;;;;;4972755;28;21306;-46
2022/06/04 01:36:12;;;;;;;13.13;8.87;;;10.40;1.00;;;;;;4969824;28;20440;-45
2022/06/04 01:38:48;;;;;;;15.30;9.30;;;10.30;1.00;;;;;;4965278;28;20420;-46
2022/06/04 01:41:29;;;;;;;17.10;9.93;;;10.20;1.00;;;;;;4969665;28;20523;-46
2022/06/04 01:44:00;;;;;;;16.33;9.37;;;10.20;1.00;;;;;;4970043;28;20436;-46
2022/06/04 01:46:34;;;;;;;13.30;9.47;;;10.20;1.00;;;;;;4969757;28;21145;-46
2022/06/04 01:49:23;;;;;;;14.20;9.07;;;10.20;1.00;;;;;;4967958;28;21157;-46
2022/06/04 01:51:52;;;;;;;18.43;9.70;;;10.10;1.00;;;;;;4954860;28;20831;-46
2022/06/04 01:54:32;;;;;;;13.00;9.40;;;10.10;1.00;;;;;;4965912;28;20459;-46
2022/06/04 01:57:05;;;;;;;12.20;8.63;;;10.10;1.00;;;;;;4961333;28;20444;-46
2022/06/04 01:59:46;;;;;;;18.00;10.13;;;10.00;1.00;;;;;;4968301;28;20467;-46
2022/06/04 02:02:17;;;;;;;16.13;10.20;;;10.00;1.00;;;;;;4968188;28;20478;-47
2022/06/04 02:04:50;;;;;;;13.00;10.13;;;9.90;1.00;;;;;;4971622;28;20471;-47
2022/06/04 02:07:31;;;;;;;15.00;10.97;;;9.90;1.00;;;;;;4969039;28;20478;-47
2022/06/04 02:10:09;;;;;;;13.83;10.50;;;9.90;1.00;;;;;;4964249;28;20440;-47
2022/06/04 02:12:36;;;;;;;16.47;10.77;;;9.80;1.00;;;;;;4967387;28;20438;-47
2022/06/04 02:15:08;;;;;;;14.20;10.00;;;9.70;1.00;;;;;;4970195;28;20761;-50
2022/06/04 02:17:37;;;;;;;16.00;10.40;;;9.70;1.00;;;;;;4964172;28;20479;-49
2022/06/04 02:20:03;;;;;;;20.20;10.60;;;9.70;1.00;;;;;;4967667;28;20471;-49
2022/06/04 02:22:31;;;;;;;20.60;11.30;;;9.70;1.00;;;;;;4967134;28;21143;-49
2022/06/04 02:25:03;;;;;;;18.80;10.57;;;9.70;21.40;;;;;;4968847;28;20793;-49
2022/06/04 02:27:29;;;;;;;18.30;11.20;;;9.60;99.90;;;;;;4970271;28;20437;-49
2022/06/04 02:29:55;;;;;;;17.93;10.77;;;9.60;99.90;;;;;;4967502;28;20492;-49
2022/06/04 02:32:29;;;;;;;16.93;10.43;;;9.60;99.90;;;;;;4968147;28;20272;-50
2022/06/04 02:35:01;;;;;;;17.73;10.90;;;9.60;99.90;;;;;;4965481;28;20198;-50
2022/06/04 02:37:50;;;;;;;17.40;11.30;;;9.60;99.90;;;;;;4966240;28;20441;-50
2022/06/04 02:40:26;;;;;;;15.97;11.33;;;9.50;99.90;;;;;;4963365;28;20967;-49
2022/06/04 02:43:44;;;;;;;19.23;11.87;;;9.50;99.90;;;;;;4968664;28;20456;-49
2022/06/04 02:46:31;;;;;;;23.47;12.17;;;9.50;1.00;;;;;;4922393;29;20450;-49
2022/06/04 02:49:04;;;;;;;18.40;12.03;;;9.50;1.00;;;;;;4922338;29;20458;-47
2022/06/04 02:51:42;;;;;;;20.00;11.30;;;9.40;1.00;;;;;;4953658;28;20499;-47
2022/06/04 02:54:21;;;;;;;20.03;11.60;;;9.40;1.00;;;;;;4967224;28;20461;-47
2022/06/04 02:56:50;;;;;;;22.37;13.07;;;9.40;1.00;;;;;;4959830;28;20786;-47
2022/06/04 02:59:18;;;;;;;19.40;13.50;;;9.40;78.30;;;;;;4966352;28;20929;-47
2022/06/04 03:01:47;;;;;;;23.20;12.90;;;9.40;99.90;;;;;;4963296;28;20436;-47
2022/06/04 03:04:13;;;;;;;23.43;12.63;;;9.40;1.00;;;;;;4969146;28;20531;-47
2022/06/04 03:06:39;;;;;;;18.30;12.70;;;9.40;99.90;;;;;;4967315;28;20509;-46
2022/06/04 03:09:09;;;;;;;22.23;12.77;;;9.40;99.90;;;;;;4967277;28;20272;-47
2022/06/04 03:11:43;;;;;;;17.73;11.83;;;9.40;99.90;;;;;;4971821;28;20456;-47
2022/06/04 03:14:10;;;;;;;16.80;11.60;;;9.40;99.90;;;;;;4968790;28;20425;-47
2022/06/04 03:16:38;;;;;;;18.73;12.37;;;9.40;99.90;;;;;;4964707;28;20910;-47
2022/06/04 03:19:07;;;;;;;20.13;13.40;;;9.30;1.00;;;;;;4971409;28;20502;-46
2022/06/04 03:21:34;;;;;;;25.13;14.13;;;9.40;1.00;;;;;;4970959;28;20495;-47
2022/06/04 03:23:59;;;;;;;20.20;13.40;;;9.40;99.90;;;;;;4962566;28;20530;-47
2022/06/04 03:26:25;;;;;;;19.50;13.37;;;9.30;16.50;;;;;;4966919;28;20472;-47
2022/06/04 03:28:51;;;;;;;23.10;13.27;;;9.30;99.90;;;;;;4964324;28;20185;-47
2022/06/04 03:31:16;;;;;;;27.10;13.10;;;9.30;99.90;;;;;;4964562;28;20621;-47
2022/06/04 03:33:42;;;;;;;23.93;13.00;;;9.30;1.00;;;;;;4969942;28;20297;-47
2022/06/04 03:36:11;;;;;;;23.70;13.70;;;9.30;99.90;;;;;;4963785;28;20220;-47
2022/06/04 03:38:37;;;;;;;23.03;13.40;;;9.30;1.00;;;;;;4966786;28;20320;-47
2022/06/04 03:41:03;;;;;;;23.17;14.10;;;9.30;1.00;;;;;;4960798;28;21002;-46
2022/06/04 03:43:29;;;;;;;22.03;14.00;;;9.40;95.30;;;;;;4961602;28;20201;-46
2022/06/04 03:45:54;;;;;;;21.00;13.80;;;9.40;99.90;;;;;;4969870;28;20201;-46
2022/06/04 03:48:20;;;;;;;21.93;14.67;;;9.40;99.90;;;;;;4962533;28;20193;-47
2022/06/04 03:50:45;;;;;;;23.70;14.23;;;9.40;99.90;;;;;;4961644;28;20593;-48
2022/06/04 03:53:11;;;;;;;23.60;14.80;;;9.40;99.90;;;;;;4970696;28;20280;-47
2022/06/04 03:55:37;;;;;;;27.47;15.33;;;9.40;1.00;;;;;;4967677;28;20200;-47
2022/06/04 03:58:02;;;;;;;21.80;14.00;;;9.50;1.00;;;;;;4966142;28;20212;-46
2022/06/04 04:00:32;;;;;;;24.47;15.57;;;9.50;1.00;;;;;;4956252;28;20656;-47
2022/06/04 04:03:01;;;;;;;24.53;15.63;;;9.50;1.00;;;;;;4958653;28;20200;-47
2022/06/04 04:05:33;;;;;;;27.00;15.17;;;9.60;1.00;;;;;;4964455;28;20430;-47
2022/06/04 04:08:00;;;;;;;24.10;15.90;;;9.60;1.00;;;;;;4967802;28;20950;-46
2022/06/04 04:10:28;;;;;;;21.77;14.10;;;9.70;3.80;;;;;;4969511;28;20424;-47
2022/06/04 04:12:54;;;;;;;22.30;15.00;;;9.70;13.70;;;;;;4960392;28;20432;-46
2022/06/04 04:15:20;;;;;;;25.80;15.60;;;9.80;1.00;;;;;;4964436;28;20450;-47
2022/06/04 04:17:47;;;;;;;28.07;15.23;;;9.80;1.00;;;;;;4969158;28;20189;-46
2022/06/04 04:20:28;;;;;;;24.70;14.50;;;9.90;99.90;;;;;;4968556;28;21173;-47
2022/06/04 04:22:54;;;;;;;25.97;14.97;;;9.90;99.90;;;;;;4964134;28;20493;-47
2022/06/04 04:25:22;;;;;;;25.67;15.93;;;10.00;1.00;;;;;;4961687;28;20496;-47
2022/06/04 04:27:48;;;;;;;25.67;16.47;;;10.10;1.00;;;;;;4957011;28;20428;-46
2022/06/04 04:30:17;;;;;;;25.37;15.67;;;10.20;1.00;;;;;;4964326;28;20424;-46
2022/06/04 04:32:43;;;;;;;27.37;16.07;;;10.30;99.90;;;;;;4964804;28;20443;-46
2022/06/04 04:35:14;;;;;;;27.70;15.30;;;10.50;99.90;;;;;;4966917;28;20433;-46
2022/06/04 04:37:40;;;;;;;28.33;15.37;;;10.50;99.90;;;;;;4958279;28;20898;-46
2022/06/04 04:40:06;;;;;;;32.50;15.80;;;10.70;99.90;;;;;;4968247;28;20547;-49
2022/06/04 04:42:32;;;;;;;25.83;15.27;;;10.70;1.00;;;;;;4962700;28;20445;-48
2022/06/04 04:44:57;;;;;;;21.50;13.90;;;10.90;1.00;;;;;;4967035;28;20500;-49
2022/06/04 04:47:23;;;;;;;28.50;14.93;;;11.00;99.90;;;;;;4967519;28;20660;-48
2022/06/04 04:49:49;;;;;;;20.67;14.80;;;11.20;99.90;;;;;;4963772;28;20188;-48
2022/06/04 04:52:15;;;;;;;24.37;15.00;;;11.30;52.50;;;;;;4963587;28;20557;-48
2022/06/04 04:54:41;;;;;;;23.57;14.23;;;11.40;29.00;;;;;;4959419;28;20926;-46
2022/06/04 04:57:06;;;;;;;19.50;13.97;;;11.50;1.00;;;;;;4964925;28;20600;-46
2022/06/04 04:59:32;;;;;;;28.73;14.87;;;11.70;1.00;;;;;;4958599;28;20464;-46
2022/06/04 05:01:57;;;;;;;22.40;14.20;;;11.70;1.00;;;;;;4961411;28;20194;-46
2022/06/04 05:04:23;;;;;;;23.57;14.10;;;11.80;99.90;;;;;;4964575;28;20282;-46
2022/06/04 05:06:49;;;;;;;21.50;14.07;;;11.90;99.90;;;;;;4957840;28;20217;-46
2022/06/04 05:09:15;;;;;;;25.10;14.87;;;12.00;99.90;;;;;;4962804;28;20204;-46
2022/06/04 05:11:41;;;;;;;23.10;14.30;;;12.00;99.90;;;;;;4968088;28;20303;-46
2022/06/04 05:14:07;;;;;;;23.17;14.50;;;12.00;99.90;;;;;;4965010;28;20543;-46
2022/06/04 05:16:38;;;;;;;20.03;13.27;;;12.00;99.90;;;;;;4957851;28;20946;-46
2022/06/04 05:19:05;;;;;;;23.67;13.67;;;12.10;99.90;;;;;;4962632;28;20231;-46
2022/06/04 05:21:36;;;;;;;23.50;14.13;;;12.20;99.90;;;;;;4962156;28;20436;-46
2022/06/04 05:24:02;;;;;;;22.07;13.30;;;12.50;99.90;;;;;;4960423;28;20440;-47
2022/06/04 05:26:28;;;;;;;20.50;13.10;;;12.70;99.90;;;;;;4960938;28;20421;-47
2022/06/04 05:28:54;;;;;;;17.67;12.37;;;12.80;99.90;;;;;;4965728;28;20486;-46
2022/06/04 05:31:20;;;;;;;22.13;13.53;;;12.90;99.90;;;;;;4958026;28;20188;-46
2022/06/04 05:33:46;;;;;;;19.93;12.50;;;13.00;99.90;;;;;;4960883;28;20189;-46
2022/06/04 05:36:13;;;;;;;19.60;12.90;;;13.10;99.90;;;;;;4964167;28;20439;-47
2022/06/04 05:38:39;;;;;;;19.00;12.27;;;13.10;99.90;;;;;;4958816;28;20571;-46
2022/06/04 05:41:08;;;;;;;21.13;12.73;;;13.20;99.90;;;;;;4962825;28;20592;-47
2022/06/04 05:43:34;;;;;;;20.70;12.10;;;13.30;99.90;;;;;;4967404;28;20444;-47
2022/06/04 05:46:04;;;;;;;22.93;12.57;;;13.50;99.90;;;;;;4963049;28;20481;-48
2022/06/04 05:48:30;;;;;;;21.57;12.87;;;13.80;99.90;;;;;;4959067;28;20503;-47
2022/06/04 05:50:57;;;;;;;19.97;12.33;;;14.10;99.90;;;;;;4962250;28;20555;-46
2022/06/04 05:53:24;;;;;;;16.00;12.10;;;14.30;99.90;;;;;;4962758;28;20457;-46
2022/06/04 05:55:50;;;;;;;23.63;11.97;;;14.50;99.90;;;;;;4958143;28;20510;-46
2022/06/04 05:58:16;;;;;;;16.60;11.33;;;14.90;99.90;;;;;;4960918;28;20451;-46
2022/06/04 06:00:42;;;;;;;16.90;11.63;;;15.20;99.90;;;;;;4959879;28;20468;-47
2022/06/04 06:03:09;;;;;;;13.33;10.00;;;15.20;99.90;;;;;;4958578;28;20181;-47
2022/06/04 06:05:40;;;;;;;18.60;11.43;;;15.50;99.90;;;;;;4967048;28;21208;-47
2022/06/04 06:08:05;;;;;;;16.77;10.03;;;15.60;99.90;;;;;;4963534;28;20931;-47
2022/06/04 06:10:32;;;;;;;14.97;9.63;;;15.90;99.90;;;;;;4962098;28;20436;-47
2022/06/04 06:12:58;;;;;;;14.50;10.10;;;15.90;99.90;;;;;;4965310;28;20659;-47
2022/06/04 06:15:23;;;;;;;18.60;10.20;;;15.80;99.90;;;;;;4971427;28;20443;-47
2022/06/04 06:17:49;;;;;;;14.47;10.17;;;15.80;99.90;;;;;;4964810;28;20305;-47
2022/06/04 06:20:16;;;;;;;17.23;9.60;;;16.00;99.90;;;;;;4960075;28;20201;-47
2022/06/04 06:22:41;;;;;;;13.63;10.03;;;16.30;99.90;;;;;;4968453;28;20181;-47
2022/06/04 06:25:07;;;;;;;18.70;9.50;;;16.50;99.90;;;;;;4957891;28;20436;-45
2022/06/04 06:27:33;;;;;;;16.83;9.43;;;16.80;99.90;;;;;;4961208;28;20194;-45
2022/06/04 06:29:59;;;;;;;14.20;9.30;;;17.00;99.90;;;;;;4967463;28;20523;-44
2022/06/04 06:32:26;;;;;;;13.60;10.03;;;17.20;99.90;;;;;;4962644;28;20428;-44
2022/06/04 06:34:52;;;;;;;17.27;9.33;;;17.30;99.90;;;;;;4969418;28;20189;-44
2022/06/04 06:37:17;;;;;;;17.93;9.10;;;17.40;99.90;;;;;;4962383;28;20801;-44
2022/06/04 06:39:43;;;;;;;16.23;9.33;;;17.10;99.90;;;;;;4967241;28;20217;-44
2022/06/04 06:42:09;;;;;;;13.87;9.30;;;17.20;99.90;;;;;;4967963;28;20292;-44
2022/06/04 06:44:35;;;;;;;15.53;9.57;;;17.40;99.90;;;;;;4966687;28;20188;-44
2022/06/04 06:47:00;;;;;;;15.13;9.27;;;17.60;99.90;;;;;;4959977;28;20632;-45
2022/06/04 06:49:28;;;;;;;12.13;8.80;;;17.70;99.90;;;;;;4963033;28;20193;-44
2022/06/04 06:52:02;;;;;;;13.83;8.93;;;18.10;99.90;;;;;;4969910;28;20245;-45
2022/06/04 06:54:31;;;;;;;11.97;9.20;;;18.40;99.90;;;;;;4961244;28;20803;-45
2022/06/04 06:56:57;;;;;;;13.87;9.03;;;18.60;99.90;;;;;;4967808;28;20436;-45
2022/06/04 06:59:24;;;;;;;13.40;8.70;;;18.70;99.90;;;;;;4967675;28;20472;-44
2022/06/04 07:01:51;;;;;;;9.80;8.30;;;18.90;99.90;;;;;;4961068;28;20216;-45
2022/06/04 07:04:18;;;;;;;12.13;8.47;;;19.20;99.90;;;;;;4969847;28;20442;-45
2022/06/04 07:06:52;;;;;;;10.77;7.90;;;19.50;99.90;;;;;;4959255;28;20452;-45
2022/06/04 07:09:33;;;;;;;14.93;8.33;;;19.60;99.90;;;;;;4964995;28;20942;-46
2022/06/04 07:11:59;;;;;;;10.70;7.60;;;19.50;99.90;;;;;;4966625;28;20495;-45
2022/06/04 07:14:25;;;;;;;10.90;7.87;;;19.70;99.90;;;;;;4964827;28;20436;-46
2022/06/04 07:16:52;;;;;;;10.50;7.77;;;19.50;99.90;;;;;;4962782;28;20482;-47
2022/06/04 07:19:21;;;;;;;14.50;8.33;;;19.70;99.90;;;;;;4963806;28;20468;-47
2022/06/04 07:21:47;;;;;;;16.10;7.27;;;20.10;99.90;;;;;;4962305;28;20428;-47
2022/06/04 07:24:13;;;;;;;14.93;8.60;;;20.40;99.90;;;;;;4961770;28;20445;-46
2022/06/04 07:26:40;;;;;;;12.20;8.80;;;20.40;99.90;;;;;;4968476;28;20950;-47
2022/06/04 07:29:07;;;;;;;10.50;7.40;;;20.30;99.90;;;;;;4964108;28;20615;-47
2022/06/04 07:31:33;;;;;;;10.13;7.57;;;20.60;99.90;;;;;;4960741;28;20444;-47
2022/06/04 07:33:59;;;;;;;11.00;8.30;;;20.80;99.90;;;;;;4967832;28;20494;-48
2022/06/04 07:36:27;;;;;;;12.40;8.27;;;21.00;99.90;;;;;;4959820;28;20811;-47
2022/06/04 07:38:54;;;;;;;13.00;8.57;;;21.10;99.90;;;;;;4963229;28;20469;-47
2022/06/04 07:41:26;;;;;;;11.30;7.93;;;21.40;99.90;;;;;;4965690;28;20817;-47
2022/06/04 07:43:53;;;;;;;10.13;6.93;;;21.40;99.90;;;;;;4959105;28;20477;-47
2022/06/04 07:46:20;;;;;;;12.03;8.53;;;21.50;99.90;;;;;;4966375;28;20432;-47
2022/06/04 07:48:47;;;;;;;9.70;8.00;;;21.70;99.90;;;;;;4962892;28;20840;-47
2022/06/04 07:51:14;;;;;;;12.30;8.93;;;21.20;99.90;;;;;;4966734;28;20983;-47
2022/06/04 07:53:39;;;;;;;11.73;8.17;;;21.10;99.90;;;;;;4968339;28;20472;-47
2022/06/04 07:56:07;;;;;;;8.23;7.43;;;21.20;99.90;;;;;;4965708;28;20571;-47
2022/06/04 07:58:33;;;;;;;12.60;8.70;;;21.30;99.90;;;;;;4964037;28;20208;-47
2022/06/04 08:00:59;;;;;;;10.50;7.60;;;21.20;99.90;;;;;;4965636;28;20475;-47
2022/06/04 08:03:25;;;;;;;12.20;7.90;;;21.10;99.90;;;;;;4961276;28;20649;-47
2022/06/04 08:05:51;;;;;;;10.33;7.37;;;21.20;99.90;;;;;;4963598;28;20476;-47
2022/06/04 08:08:17;;;;;;;8.40;7.10;;;21.80;99.90;;;;;;4968149;28;20182;-47
2022/06/04 08:10:50;;;;;;;9.00;7.60;;;22.20;99.90;;;;;;4964614;28;20878;-47
2022/06/04 08:15:48;;;;;;;8.10;7.20;;;22.70;99.90;;;;;;4960364;28;20487;-47
2022/06/04 08:18:14;;;;;;;10.20;7.57;;;22.90;99.90;;;;;;4962375;28;21224;-47
2022/06/04 08:20:43;;;;;;;8.10;7.30;;;22.90;99.90;;;;;;4965312;28;20300;-47
2022/06/04 08:23:10;;;;;;;10.67;7.30;;;23.20;99.90;;;;;;4959500;28;20210;-47
2022/06/04 08:25:40;;;;;;;11.03;7.20;;;22.70;99.90;;;;;;4962305;28;20450;-47
2022/06/04 08:28:06;;;;;;;9.20;6.90;;;22.70;99.90;;;;;;4961821;28;20978;-47
2022/06/04 08:30:33;;;;;;;8.60;6.87;;;22.90;99.90;;;;;;4962066;28;20460;-46
2022/06/04 08:32:58;;;;;;;7.10;6.40;;;23.20;99.90;;;;;;4963781;28;20925;-46
2022/06/04 08:35:24;;;;;;;12.93;6.73;;;23.40;99.90;;;;;;4964754;28;20425;-46
2022/06/04 08:37:50;;;;;;;7.50;6.43;;;23.60;99.90;;;;;;4961705;28;20193;-47
2022/06/04 08:40:42;;;;;;;8.00;5.67;;;23.90;99.90;;;;;;4962584;28;20483;-46
2022/06/04 08:43:13;;;;;;;12.33;7.67;;;23.80;99.90;;;;;;4963709;28;20277;-46
2022/06/04 08:45:39;;;;;;;20.13;6.90;;;23.80;99.90;;;;;;4958604;28;20474;-47
2022/06/04 08:48:14;;;;;;;8.97;5.90;;;24.00;99.90;;;;;;4966479;28;20436;-46
2022/06/04 08:50:41;;;;;;;5.10;4.60;;;24.40;99.90;;;;;;4960550;28;20480;-46
2022/06/04 08:53:16;;;;;;;9.33;5.53;;;24.60;99.90;;;;;;4964029;28;20514;-46
2022/06/04 08:58:56;;;;;;;6.70;5.27;;;24.30;99.90;;;;;;4958200;28;20484;-46
2022/06/04 09:01:35;;;;;;;7.80;5.97;;;24.40;99.90;;;;;;4959646;28;20514;-46
2022/06/04 09:04:03;;;;;;;7.50;5.43;;;24.40;99.90;;;;;;4961560;28;20453;-46
2022/06/04 09:06:45;;;;;;;10.23;7.10;;;24.70;99.90;;;;;;4956977;28;20429;-46
2022/06/04 09:09:24;;;;;;;8.80;5.70;;;24.80;99.90;;;;;;4965395;28;21111;-46
2022/06/04 09:12:18;;;;;;;4.67;4.10;;;24.80;99.90;;;;;;4962760;28;20468;-46
2022/06/04 09:14:54;;;;;;;4.30;3.90;;;25.10;99.90;;;;;;4964289;28;20519;-46
2022/06/04 09:17:39;;;;;;;6.63;4.30;;;25.00;99.90;;;;;;4964409;28;20503;-47
2022/06/04 09:20:38;;;;;;;9.17;4.60;;;24.90;99.90;;;;;;4964757;28;20526;-46
2022/06/04 09:23:13;;;;;;;5.93;4.87;;;25.00;99.90;;;;;;4955447;28;20986;-47
2022/06/04 09:25:47;;;;;;;6.73;4.60;;;25.20;99.90;;;;;;4963045;28;20453;-46
2022/06/04 09:28:18;;;;;;;4.90;4.40;;;25.40;99.90;;;;;;4965385;28;20416;-46
2022/06/04 09:30:58;;;;;;;5.77;5.10;;;25.50;99.90;;;;;;4960748;28;20445;-47
2022/06/04 09:33:52;;;;;;;9.47;5.30;;;25.30;99.90;;;;;;4966262;28;20944;-46
2022/06/04 09:36:22;;;;;;;5.07;4.50;;;25.40;99.90;;;;;;4956255;28;20449;-46
2022/06/04 09:39:20;;;;;;;5.90;4.80;;;25.50;99.90;;;;;;4962137;28;20427;-46
2022/06/04 09:41:55;;;;;;;6.90;4.50;;;25.50;99.90;;;;;;4965848;28;20432;-47
2022/06/04 09:44:22;;;;;;;6.37;5.30;;;25.20;99.90;;;;;;4958632;28;21214;-47
2022/06/04 09:46:57;;;;;;;7.27;5.27;;;25.50;99.90;;;;;;4966436;28;20540;-48
2022/06/04 09:49:42;;;;;;;5.47;4.97;;;25.70;99.90;;;;;;4967102;28;20452;-47
2022/06/04 09:52:25;;;;;;;8.67;5.40;;;25.60;99.90;;;;;;4965454;28;20476;-47
2022/06/04 09:54:54;;;;;;;6.70;4.60;;;25.40;99.90;;;;;;4968373;28;21149;-48
2022/06/04 09:57:28;;;;;;;8.03;5.70;;;25.60;99.90;;;;;;4967771;28;20447;-47
2022/06/04 09:59:56;;;;;;;7.67;4.97;;;25.70;99.90;;;;;;4969931;28;20475;-47
2022/06/04 10:02:22;;;;;;;8.27;5.60;;;26.00;99.90;;;;;;4963971;28;20428;-48
2022/06/04 10:04:57;;;;;;;52.03;15.60;;;26.20;99.90;;;;;;4966839;28;20429;-48
2022/06/04 10:07:35;;;;;;;12.10;6.80;;;26.50;99.90;;;;;;4960947;28;20185;-48
2022/06/04 10:10:42;;;;;;;13.27;6.63;;;26.70;99.90;;;;;;4968664;28;20432;-48
2022/06/04 10:16:25;;;;;;;7.73;4.90;;;26.30;99.90;;;;;;4968993;28;20520;-47
2022/06/04 10:19:04;;;;;;;7.90;4.93;;;26.50;99.90;;;;;;4967146;28;21248;-47
2022/06/04 10:21:36;;;;;;;8.23;6.30;;;26.50;99.90;;;;;;4971162;28;20443;-47
2022/06/04 10:24:17;;;;;;;5.60;4.53;;;26.40;99.90;;;;;;4971264;28;20765;-47
2022/06/04 10:26:47;;;;;;;5.70;4.60;;;26.60;99.90;;;;;;4967403;28;21087;-46
2022/06/04 10:29:25;;;;;;;25.53;10.43;;;26.60;99.90;;;;;;4967032;28;20643;-48
2022/06/04 10:32:29;;;;;;;5.73;4.40;;;26.30;99.90;;;;;;4963672;28;20502;-47
2022/06/04 10:35:05;;;;;;;35.33;9.77;;;26.60;99.90;;;;;;4968232;28;20467;-47
2022/06/04 10:37:52;;;;;;;4.57;4.17;;;26.90;99.90;;;;;;4961951;28;20427;-47
2022/06/04 10:41:05;;;;;;;8.40;4.40;;;27.00;99.90;;;;;;4961084;28;20471;-47
2022/06/04 10:44:01;;;;;;;4.70;4.20;;;27.40;99.90;;;;;;4967464;28;20432;-46
2022/06/04 10:47:08;;;;;;;9.70;5.70;;;27.80;99.90;;;;;;4966774;28;20482;-46
2022/06/04 10:50:21;;;;;;;4.93;4.43;;;28.20;99.90;;;;;;4952350;28;20471;-47
2022/06/04 10:52:55;;;;;;;4.33;3.20;;;28.00;99.90;;;;;;4930642;29;20462;-47
2022/06/04 10:55:24;;;;;;;4.23;3.70;;;28.10;99.90;;;;;;4961343;28;20433;-47
2022/06/04 10:58:13;;;;;;;3.77;3.47;;;28.20;99.90;;;;;;4967266;28;20945;-47
2022/06/04 11:00:53;;;;;;;5.37;3.90;;;28.20;99.90;;;;;;4964561;28;20466;-47
2022/06/04 11:03:50;;;;;;;7.30;3.97;;;28.20;99.90;;;;;;4964858;28;20811;-47
2022/06/04 11:06:31;;;;;;;4.10;3.57;;;28.40;99.90;;;;;;4966002;28;20448;-47
2022/06/04 11:09:10;;;;;;;3.83;3.53;;;28.20;99.90;;;;;;4970503;28;20420;-46
2022/06/04 11:11:57;;;;;;;3.60;2.90;;;28.00;99.90;;;;;;4967421;28;20436;-46
2022/06/04 11:14:34;;;;;;;5.20;3.70;;;27.50;99.90;;;;;;4967742;28;20859;-46
2022/06/04 11:17:21;;;;;;;4.07;3.67;;;27.80;99.90;;;;;;4963089;28;20799;-47
2022/06/04 11:20:02;;;;;;;4.60;4.00;;;27.90;99.90;;;;;;4965957;28;20460;-47
2022/06/04 11:22:38;;;;;;;4.37;3.27;;;28.00;99.90;;;;;;4961545;28;20436;-47
2022/06/04 11:25:08;;;;;;;5.10;3.40;;;28.10;99.90;;;;;;4961737;28;20471;-47
2022/06/04 11:27:45;;;;;;;3.63;3.30;;;28.50;99.90;;;;;;4965877;28;20421;-47
2022/06/04 11:30:17;;;;;;;3.10;2.80;;;28.90;99.90;;;;;;4962607;28;20933;-48
2022/06/04 11:33:17;;;;;;;3.53;3.20;;;29.20;99.90;;;;;;4959664;28;20429;-47
2022/06/04 11:35:49;;;;;;;3.80;3.27;;;29.00;99.90;;;;;;4971439;28;20449;-46
2022/06/04 11:38:42;;;;;;;3.70;3.40;;;29.10;99.90;;;;;;4969347;28;20540;-47
2022/06/04 11:41:23;;;;;;;3.87;3.57;;;29.20;99.90;;;;;;4967139;28;20870;-47
2022/06/04 11:44:02;;;;;;;5.63;3.50;;;29.30;99.90;;;;;;4965984;28;20445;-46
2022/06/04 11:46:59;;;;;;;4.60;4.00;;;29.50;99.90;;;;;;4969218;28;20451;-47
2022/06/04 11:49:46;;;;;;;4.00;3.40;;;29.30;99.90;;;;;;4948054;28;20806;-46
2022/06/04 11:52:37;;;;;;;5.07;3.90;;;29.20;99.90;;;;;;4969738;28;20476;-47
2022/06/04 11:55:34;;;;;;;3.47;3.17;;;29.00;99.90;;;;;;4964480;28;20892;-46
2022/06/04 11:58:18;;;;;;;4.53;3.57;;;29.30;99.90;;;;;;4968450;28;20440;-47
2022/06/04 12:00:46;;;;;;;3.77;3.47;;;29.30;99.90;;;;;;4964499;28;20572;-47
2022/06/04 12:04:06;;;;;;;3.10;2.90;;;29.40;99.90;;;;;;4966105;28;20451;-46
2022/06/04 12:06:42;;;;;;;3.50;3.30;;;29.20;99.90;;;;;;4944533;28;20997;-47
2022/06/04 12:09:23;;;;;;;5.27;3.40;;;29.10;99.90;;;;;;4965591;28;20498;-47
2022/06/04 12:12:09;;;;;;;3.90;3.50;;;29.00;99.90;;;;;;4961476;28;20833;-47
2022/06/04 12:14:57;;;;;;;3.30;3.10;;;29.00;99.90;;;;;;4968920;28;20440;-47
2022/06/04 12:17:31;;;;;;;4.87;3.43;;;29.10;99.90;;;;;;4965915;28;20453;-47
2022/06/04 12:26:31;;;;;;;4.53;3.57;;;29.10;99.90;;;;;;4964592;28;20420;-47
2022/06/04 12:28:57;;;;;;;5.00;4.30;;;29.10;99.90;;;;;;4968994;28;20480;-47
2022/06/04 12:31:36;;;;;;;4.40;4.00;;;29.10;99.90;;;;;;4959323;28;20506;-47
2022/06/04 12:34:30;;;;;;;10.67;6.63;;;29.10;99.90;;;;;;4965779;28;20511;-47
2022/06/04 12:36:57;;;;;;;5.47;3.40;;;29.40;99.90;;;;;;4965691;28;20432;-46
2022/06/04 12:39:27;;;;;;;3.73;3.43;;;29.30;99.90;;;;;;4965322;28;20498;-44
2022/06/04 12:41:56;;;;;;;4.10;3.33;;;29.00;99.90;;;;;;4964268;28;20459;-47
2022/06/04 12:44:23;;;;;;;3.47;3.17;;;29.20;99.90;;;;;;4962728;28;20413;-47
2022/06/04 12:46:51;;;;;;;3.43;3.13;;;29.40;99.90;;;;;;4966577;28;20439;-47
2022/06/04 12:49:33;;;;;;;8.40;3.40;;;29.40;99.90;;;;;;4967631;28;20505;-45
2022/06/04 12:52:22;;;;;;;4.83;3.10;;;29.00;99.90;;;;;;4960584;28;20493;-47
2022/06/04 12:54:57;;;;;;;3.83;3.53;;;29.10;99.90;;;;;;4958990;28;20415;-46
2022/06/04 12:57:25;;;;;;;5.30;3.50;;;29.50;99.90;;;;;;4955570;28;20432;-45
2022/06/04 13:00:13;;;;;;;3.67;3.33;;;29.70;99.90;;;;;;4959061;28;20473;-45
2022/06/04 13:02:43;;;;;;;4.20;3.50;;;29.60;99.90;;;;;;4955863;28;20481;-45
2022/06/04 13:05:31;;;;;;;4.20;3.47;;;29.40;99.90;;;;;;4959573;28;20416;-45
2022/06/04 13:08:11;;;;;;;3.80;3.20;;;29.20;99.90;;;;;;4964220;28;20440;-45
2022/06/04 13:10:55;;;;;;;3.63;3.03;;;29.20;99.90;;;;;;4961921;28;20967;-45
2022/06/04 13:13:51;;;;;;;2.83;2.63;;;29.40;99.90;;;;;;4963760;28;20450;-45
2022/06/04 13:16:26;;;;;;;4.53;2.93;;;29.60;99.90;;;;;;4957574;28;20449;-45
2022/06/04 13:19:30;;;;;;;4.67;3.87;;;29.60;99.90;;;;;;4961254;28;20514;-45
2022/06/04 13:21:59;;;;;;;4.30;3.63;;;29.90;99.90;;;;;;4959261;28;20459;-45
2022/06/04 13:24:26;;;;;;;3.60;3.30;;;29.60;99.90;;;;;;4964888;28;20778;-45
2022/06/04 13:26:58;;;;;;;3.37;2.97;;;29.50;99.90;;;;;;4966262;28;20427;-45
2022/06/04 13:29:33;;;;;;;9.93;3.30;;;29.30;99.90;;;;;;4955468;28;20421;-45
2022/06/04 13:32:01;;;;;;;9.20;5.90;;;29.40;99.90;;;;;;4966361;28;20436;-45
2022/06/04 13:34:30;;;;;;;3.00;2.80;;;29.60;99.90;;;;;;4965995;28;20433;-45